sensor_id;sensor_type;location;lat;lon;timestamp;P1;durP1;ratioP1;P2;durP2;ratioP2
59938;SDS011;45801;51.810;19.444;2023-04-08T00:01:16;16.00;;;10.10;;
59938;SDS011;45801;51.810;19.444;2023-04-08T00:03:42;14.30;;;9.90;;
59938;SDS011;45801;51.810;19.444;2023-04-08T00:06:09;15.30;;;10.10;;
59938;SDS011;45801;51.810;19.444;2023-04-08T00:08:36;15.70;;;10.50;;
59938;SDS011;45801;51.810;19.444;2023-04-08T00:11:03;14.70;;;9.60;;
59938;SDS011;45801;51.810;19.444;2023-04-08T00:13:30;15.80;;;10.10;;
59938;SDS011;45801;51.810;19.444;2023-04-08T00:15:57;18.60;;;10.80;;
59938;SDS011;45801;51.810;19.444;2023-04-08T00:18:24;15.00;;;10.10;;
59938;SDS011;45801;51.810;19.444;2023-04-08T00:20:50;14.30;;;9.40;;
59938;SDS011;45801;51.810;19.444;2023-04-08T00:23:17;15.20;;;9.60;;
59938;SDS011;45801;51.810;19.444;2023-04-08T00:25:43;16.90;;;10.60;;
59938;SDS011;45801;51.810;19.444;2023-04-08T00:28:10;16.00;;;11.00;;
59938;SDS011;45801;51.810;19.444;2023-04-08T00:30:37;18.50;;;11.60;;
59938;SDS011;45801;51.810;19.444;2023-04-08T00:33:03;16.90;;;11.60;;
59938;SDS011;45801;51.810;19.444;2023-04-08T00:35:30;19.70;;;12.10;;
59938;SDS011;45801;51.810;19.444;2023-04-08T00:37:56;18.00;;;10.90;;
59938;SDS011;45801;51.810;19.444;2023-04-08T00:40:23;17.90;;;10.90;;
59938;SDS011;45801;51.810;19.444;2023-04-08T00:42:49;13.30;;;8.20;;
59938;SDS011;45801;51.810;19.444;2023-04-08T00:45:16;15.40;;;9.80;;
59938;SDS011;45801;51.810;19.444;2023-04-08T00:47:42;17.30;;;10.60;;
59938;SDS011;45801;51.810;19.444;2023-04-08T00:50:09;16.70;;;10.80;;
59938;SDS011;45801;51.810;19.444;2023-04-08T00:52:37;15.70;;;10.90;;
59938;SDS011;45801;51.810;19.444;2023-04-08T00:55:04;16.80;;;11.00;;
59938;SDS011;45801;51.810;19.444;2023-04-08T00:57:31;16.40;;;11.30;;
59938;SDS011;45801;51.810;19.444;2023-04-08T00:59:58;18.30;;;11.20;;
59938;SDS011;45801;51.810;19.444;2023-04-08T01:05:08;19.20;;;11.70;;
59938;SDS011;45801;51.810;19.444;2023-04-08T01:07:40;16.90;;;11.40;;
59938;SDS011;45801;51.810;19.444;2023-04-08T01:10:16;18.70;;;11.10;;
59938;SDS011;45801;51.810;19.444;2023-04-08T01:15:25;17.10;;;10.60;;
59938;SDS011;45801;51.810;19.444;2023-04-08T01:17:53;16.60;;;11.00;;
59938;SDS011;45801;51.810;19.444;2023-04-08T01:20:25;17.40;;;10.90;;
59938;SDS011;45801;51.810;19.444;2023-04-08T01:25:29;17.40;;;11.20;;
59938;SDS011;45801;51.810;19.444;2023-04-08T01:28:03;16.10;;;10.60;;
59938;SDS011;45801;51.810;19.444;2023-04-08T01:30:32;16.40;;;10.90;;
59938;SDS011;45801;51.810;19.444;2023-04-08T01:33:00;16.50;;;10.60;;
59938;SDS011;45801;51.810;19.444;2023-04-08T01:35:28;18.60;;;11.30;;
59938;SDS011;45801;51.810;19.444;2023-04-08T01:37:57;17.80;;;11.50;;
59938;SDS011;45801;51.810;19.444;2023-04-08T01:40:25;17.40;;;11.70;;
59938;SDS011;45801;51.810;19.444;2023-04-08T01:42:53;18.20;;;11.10;;
59938;SDS011;45801;51.810;19.444;2023-04-08T01:45:22;16.00;;;11.10;;
59938;SDS011;45801;51.810;19.444;2023-04-08T01:47:49;16.90;;;11.40;;
59938;SDS011;45801;51.810;19.444;2023-04-08T01:50:17;17.20;;;12.00;;
59938;SDS011;45801;51.810;19.444;2023-04-08T01:52:47;16.60;;;12.00;;
59938;SDS011;45801;51.810;19.444;2023-04-08T01:55:14;16.00;;;10.40;;
59938;SDS011;45801;51.810;19.444;2023-04-08T01:57:43;18.20;;;11.90;;
59938;SDS011;45801;51.810;19.444;2023-04-08T02:02:43;18.80;;;11.50;;
59938;SDS011;45801;51.810;19.444;2023-04-08T02:05:12;19.00;;;12.00;;
59938;SDS011;45801;51.810;19.444;2023-04-08T02:07:39;18.60;;;11.40;;
59938;SDS011;45801;51.810;19.444;2023-04-08T02:10:06;18.50;;;12.30;;
59938;SDS011;45801;51.810;19.444;2023-04-08T02:12:33;17.80;;;11.90;;
59938;SDS011;45801;51.810;19.444;2023-04-08T02:15:01;18.00;;;12.00;;
59938;SDS011;45801;51.810;19.444;2023-04-08T02:17:33;18.80;;;11.70;;
59938;SDS011;45801;51.810;19.444;2023-04-08T02:20:05;19.10;;;12.30;;
59938;SDS011;45801;51.810;19.444;2023-04-08T02:25:14;18.50;;;11.70;;
59938;SDS011;45801;51.810;19.444;2023-04-08T02:27:42;17.30;;;11.20;;
59938;SDS011;45801;51.810;19.444;2023-04-08T02:30:11;18.00;;;11.40;;
59938;SDS011;45801;51.810;19.444;2023-04-08T02:32:38;15.40;;;10.60;;
59938;SDS011;45801;51.810;19.444;2023-04-08T02:35:05;13.80;;;9.10;;
59938;SDS011;45801;51.810;19.444;2023-04-08T02:37:33;13.80;;;8.90;;
59938;SDS011;45801;51.810;19.444;2023-04-08T02:39:59;15.00;;;9.50;;
59938;SDS011;45801;51.810;19.444;2023-04-08T02:42:26;16.60;;;9.90;;
59938;SDS011;45801;51.810;19.444;2023-04-08T02:44:53;15.90;;;9.20;;
59938;SDS011;45801;51.810;19.444;2023-04-08T02:47:20;16.10;;;9.60;;
59938;SDS011;45801;51.810;19.444;2023-04-08T02:49:47;14.00;;;8.60;;
59938;SDS011;45801;51.810;19.444;2023-04-08T02:52:13;14.90;;;9.30;;
59938;SDS011;45801;51.810;19.444;2023-04-08T02:54:40;15.00;;;9.20;;
59938;SDS011;45801;51.810;19.444;2023-04-08T02:57:06;14.50;;;8.90;;
59938;SDS011;45801;51.810;19.444;2023-04-08T02:59:33;12.70;;;7.40;;
59938;SDS011;45801;51.810;19.444;2023-04-08T03:02:02;13.60;;;8.90;;
59938;SDS011;45801;51.810;19.444;2023-04-08T03:04:29;13.30;;;8.30;;
59938;SDS011;45801;51.810;19.444;2023-04-08T03:06:56;16.00;;;8.80;;
59938;SDS011;45801;51.810;19.444;2023-04-08T03:09:22;13.70;;;8.00;;
59938;SDS011;45801;51.810;19.444;2023-04-08T03:11:49;13.10;;;8.30;;
59938;SDS011;45801;51.810;19.444;2023-04-08T03:14:18;12.50;;;7.70;;
59938;SDS011;45801;51.810;19.444;2023-04-08T03:16:45;13.10;;;8.10;;
59938;SDS011;45801;51.810;19.444;2023-04-08T03:19:12;13.80;;;9.20;;
59938;SDS011;45801;51.810;19.444;2023-04-08T03:21:38;13.30;;;8.60;;
59938;SDS011;45801;51.810;19.444;2023-04-08T03:24:05;12.80;;;7.80;;
59938;SDS011;45801;51.810;19.444;2023-04-08T03:26:31;12.30;;;7.80;;
59938;SDS011;45801;51.810;19.444;2023-04-08T03:28:57;13.10;;;8.20;;
59938;SDS011;45801;51.810;19.444;2023-04-08T03:31:24;12.30;;;7.90;;
59938;SDS011;45801;51.810;19.444;2023-04-08T03:33:51;13.20;;;7.90;;
59938;SDS011;45801;51.810;19.444;2023-04-08T03:36:17;12.40;;;7.30;;
59938;SDS011;45801;51.810;19.444;2023-04-08T03:38:44;12.70;;;7.30;;
59938;SDS011;45801;51.810;19.444;2023-04-08T03:41:10;13.00;;;7.70;;
59938;SDS011;45801;51.810;19.444;2023-04-08T03:43:36;12.00;;;7.50;;
59938;SDS011;45801;51.810;19.444;2023-04-08T03:46:03;13.20;;;7.90;;
59938;SDS011;45801;51.810;19.444;2023-04-08T03:48:29;12.60;;;7.20;;
59938;SDS011;45801;51.810;19.444;2023-04-08T03:50:56;13.40;;;7.70;;
59938;SDS011;45801;51.810;19.444;2023-04-08T03:53:22;12.50;;;7.10;;
59938;SDS011;45801;51.810;19.444;2023-04-08T03:55:50;12.50;;;7.40;;
59938;SDS011;45801;51.810;19.444;2023-04-08T03:58:16;11.20;;;7.70;;
59938;SDS011;45801;51.810;19.444;2023-04-08T04:00:43;12.80;;;7.30;;
59938;SDS011;45801;51.810;19.444;2023-04-08T04:03:09;11.80;;;7.00;;
59938;SDS011;45801;51.810;19.444;2023-04-08T04:05:38;11.90;;;6.60;;
59938;SDS011;45801;51.810;19.444;2023-04-08T04:08:05;10.30;;;6.50;;
59938;SDS011;45801;51.810;19.444;2023-04-08T04:10:32;12.60;;;7.60;;
59938;SDS011;45801;51.810;19.444;2023-04-08T04:12:59;10.70;;;6.80;;
59938;SDS011;45801;51.810;19.444;2023-04-08T04:15:25;12.30;;;7.80;;
59938;SDS011;45801;51.810;19.444;2023-04-08T04:17:52;12.30;;;8.20;;
59938;SDS011;45801;51.810;19.444;2023-04-08T04:20:19;13.10;;;7.90;;
59938;SDS011;45801;51.810;19.444;2023-04-08T04:22:46;12.80;;;8.30;;
59938;SDS011;45801;51.810;19.444;2023-04-08T04:25:13;11.70;;;7.70;;
59938;SDS011;45801;51.810;19.444;2023-04-08T04:27:39;12.50;;;7.60;;
59938;SDS011;45801;51.810;19.444;2023-04-08T04:30:06;11.80;;;7.60;;
59938;SDS011;45801;51.810;19.444;2023-04-08T04:32:34;11.20;;;7.50;;
59938;SDS011;45801;51.810;19.444;2023-04-08T04:35:00;11.10;;;8.00;;
59938;SDS011;45801;51.810;19.444;2023-04-08T04:37:27;12.00;;;7.80;;
59938;SDS011;45801;51.810;19.444;2023-04-08T04:39:53;11.80;;;6.90;;
59938;SDS011;45801;51.810;19.444;2023-04-08T04:42:20;10.90;;;6.70;;
59938;SDS011;45801;51.810;19.444;2023-04-08T04:44:46;9.90;;;6.50;;
59938;SDS011;45801;51.810;19.444;2023-04-08T04:47:13;10.80;;;6.60;;
59938;SDS011;45801;51.810;19.444;2023-04-08T04:49:39;11.20;;;6.50;;
59938;SDS011;45801;51.810;19.444;2023-04-08T04:52:05;9.70;;;5.60;;
59938;SDS011;45801;51.810;19.444;2023-04-08T04:54:32;10.40;;;6.70;;
59938;SDS011;45801;51.810;19.444;2023-04-08T04:56:59;9.30;;;5.60;;
59938;SDS011;45801;51.810;19.444;2023-04-08T04:59:26;10.10;;;6.00;;
59938;SDS011;45801;51.810;19.444;2023-04-08T05:01:52;10.90;;;6.40;;
59938;SDS011;45801;51.810;19.444;2023-04-08T05:04:19;9.30;;;5.70;;
59938;SDS011;45801;51.810;19.444;2023-04-08T05:06:45;11.10;;;6.00;;
59938;SDS011;45801;51.810;19.444;2023-04-08T05:09:12;10.90;;;6.30;;
59938;SDS011;45801;51.810;19.444;2023-04-08T05:11:38;10.50;;;6.60;;
59938;SDS011;45801;51.810;19.444;2023-04-08T05:14:04;10.90;;;6.40;;
59938;SDS011;45801;51.810;19.444;2023-04-08T05:16:32;9.30;;;5.90;;
59938;SDS011;45801;51.810;19.444;2023-04-08T05:18:59;9.60;;;6.00;;
59938;SDS011;45801;51.810;19.444;2023-04-08T05:21:26;10.80;;;6.60;;
59938;SDS011;45801;51.810;19.444;2023-04-08T05:23:52;10.60;;;6.50;;
59938;SDS011;45801;51.810;19.444;2023-04-08T05:26:19;11.60;;;6.50;;
59938;SDS011;45801;51.810;19.444;2023-04-08T05:28:50;11.20;;;6.30;;
59938;SDS011;45801;51.810;19.444;2023-04-08T05:31:17;10.90;;;7.00;;
59938;SDS011;45801;51.810;19.444;2023-04-08T05:33:44;9.70;;;5.90;;
59938;SDS011;45801;51.810;19.444;2023-04-08T05:36:11;9.80;;;6.70;;
59938;SDS011;45801;51.810;19.444;2023-04-08T05:38:39;9.60;;;5.90;;
59938;SDS011;45801;51.810;19.444;2023-04-08T05:41:06;10.50;;;6.50;;
59938;SDS011;45801;51.810;19.444;2023-04-08T05:43:32;10.10;;;5.80;;
59938;SDS011;45801;51.810;19.444;2023-04-08T05:45:59;9.80;;;6.40;;
59938;SDS011;45801;51.810;19.444;2023-04-08T05:48:25;10.10;;;6.10;;
59938;SDS011;45801;51.810;19.444;2023-04-08T05:50:52;11.00;;;6.30;;
59938;SDS011;45801;51.810;19.444;2023-04-08T05:53:18;12.00;;;6.60;;
59938;SDS011;45801;51.810;19.444;2023-04-08T05:55:45;10.80;;;6.20;;
59938;SDS011;45801;51.810;19.444;2023-04-08T05:58:11;10.20;;;6.60;;
59938;SDS011;45801;51.810;19.444;2023-04-08T06:00:37;8.80;;;5.70;;
59938;SDS011;45801;51.810;19.444;2023-04-08T06:03:04;10.10;;;6.60;;
59938;SDS011;45801;51.810;19.444;2023-04-08T06:05:30;10.30;;;6.80;;
59938;SDS011;45801;51.810;19.444;2023-04-08T06:07:56;11.10;;;7.00;;
59938;SDS011;45801;51.810;19.444;2023-04-08T06:10:23;10.00;;;6.60;;
59938;SDS011;45801;51.810;19.444;2023-04-08T06:12:49;10.40;;;6.30;;
59938;SDS011;45801;51.810;19.444;2023-04-08T06:15:16;10.70;;;6.70;;
59938;SDS011;45801;51.810;19.444;2023-04-08T06:17:42;10.70;;;6.60;;
59938;SDS011;45801;51.810;19.444;2023-04-08T06:20:09;9.50;;;6.10;;
59938;SDS011;45801;51.810;19.444;2023-04-08T06:22:35;10.20;;;6.50;;
59938;SDS011;45801;51.810;19.444;2023-04-08T06:25:03;9.60;;;6.20;;
59938;SDS011;45801;51.810;19.444;2023-04-08T06:27:29;11.00;;;6.90;;
59938;SDS011;45801;51.810;19.444;2023-04-08T06:29:56;10.40;;;6.10;;
59938;SDS011;45801;51.810;19.444;2023-04-08T06:32:23;10.20;;;6.50;;
59938;SDS011;45801;51.810;19.444;2023-04-08T06:34:49;11.60;;;7.40;;
59938;SDS011;45801;51.810;19.444;2023-04-08T06:37:16;11.10;;;6.90;;
59938;SDS011;45801;51.810;19.444;2023-04-08T06:39:42;11.30;;;6.40;;
59938;SDS011;45801;51.810;19.444;2023-04-08T06:42:09;10.20;;;6.90;;
59938;SDS011;45801;51.810;19.444;2023-04-08T06:44:36;11.70;;;7.50;;
59938;SDS011;45801;51.810;19.444;2023-04-08T06:47:02;10.70;;;6.90;;
59938;SDS011;45801;51.810;19.444;2023-04-08T06:49:30;11.50;;;7.50;;
59938;SDS011;45801;51.810;19.444;2023-04-08T06:51:56;11.40;;;7.30;;
59938;SDS011;45801;51.810;19.444;2023-04-08T06:54:23;11.30;;;7.50;;
59938;SDS011;45801;51.810;19.444;2023-04-08T06:56:49;13.20;;;7.90;;
59938;SDS011;45801;51.810;19.444;2023-04-08T06:59:16;13.20;;;8.50;;
59938;SDS011;45801;51.810;19.444;2023-04-08T07:01:43;14.10;;;8.60;;
59938;SDS011;45801;51.810;19.444;2023-04-08T07:04:10;12.90;;;8.50;;
59938;SDS011;45801;51.810;19.444;2023-04-08T07:06:37;13.90;;;9.10;;
59938;SDS011;45801;51.810;19.444;2023-04-08T07:09:03;13.00;;;8.20;;
59938;SDS011;45801;51.810;19.444;2023-04-08T07:11:30;13.40;;;9.50;;
59938;SDS011;45801;51.810;19.444;2023-04-08T07:13:56;14.90;;;9.40;;
59938;SDS011;45801;51.810;19.444;2023-04-08T07:16:25;14.80;;;9.70;;
59938;SDS011;45801;51.810;19.444;2023-04-08T07:18:51;12.90;;;8.70;;
59938;SDS011;45801;51.810;19.444;2023-04-08T07:21:18;14.70;;;8.80;;
59938;SDS011;45801;51.810;19.444;2023-04-08T07:23:44;14.10;;;9.50;;
59938;SDS011;45801;51.810;19.444;2023-04-08T07:26:11;14.50;;;9.50;;
59938;SDS011;45801;51.810;19.444;2023-04-08T07:28:39;14.50;;;9.40;;
59938;SDS011;45801;51.810;19.444;2023-04-08T07:31:16;14.60;;;9.30;;
59938;SDS011;45801;51.810;19.444;2023-04-08T07:33:44;14.20;;;9.30;;
59938;SDS011;45801;51.810;19.444;2023-04-08T07:36:11;13.30;;;9.00;;
59938;SDS011;45801;51.810;19.444;2023-04-08T07:38:39;13.30;;;8.70;;
59938;SDS011;45801;51.810;19.444;2023-04-08T07:41:06;13.60;;;9.10;;
59938;SDS011;45801;51.810;19.444;2023-04-08T07:43:36;12.60;;;9.10;;
59938;SDS011;45801;51.810;19.444;2023-04-08T07:46:03;12.70;;;8.40;;
59938;SDS011;45801;51.810;19.444;2023-04-08T07:48:30;13.90;;;9.20;;
59938;SDS011;45801;51.810;19.444;2023-04-08T07:51:07;14.30;;;8.90;;
59938;SDS011;45801;51.810;19.444;2023-04-08T07:53:35;13.40;;;8.90;;
59938;SDS011;45801;51.810;19.444;2023-04-08T07:56:01;13.80;;;9.20;;
59938;SDS011;45801;51.810;19.444;2023-04-08T07:58:31;13.80;;;9.40;;
59938;SDS011;45801;51.810;19.444;2023-04-08T08:00:58;14.60;;;10.00;;
59938;SDS011;45801;51.810;19.444;2023-04-08T08:03:24;13.40;;;8.80;;
59938;SDS011;45801;51.810;19.444;2023-04-08T08:05:51;13.80;;;8.60;;
59938;SDS011;45801;51.810;19.444;2023-04-08T08:08:17;13.90;;;9.40;;
59938;SDS011;45801;51.810;19.444;2023-04-08T08:10:44;13.50;;;9.30;;
59938;SDS011;45801;51.810;19.444;2023-04-08T08:13:10;13.40;;;9.20;;
59938;SDS011;45801;51.810;19.444;2023-04-08T08:15:40;13.80;;;9.50;;
59938;SDS011;45801;51.810;19.444;2023-04-08T08:18:06;13.90;;;9.90;;
59938;SDS011;45801;51.810;19.444;2023-04-08T08:20:34;14.20;;;9.70;;
59938;SDS011;45801;51.810;19.444;2023-04-08T08:23:01;14.50;;;10.10;;
59938;SDS011;45801;51.810;19.444;2023-04-08T08:25:27;14.60;;;10.00;;
59938;SDS011;45801;51.810;19.444;2023-04-08T08:27:54;14.60;;;9.20;;
59938;SDS011;45801;51.810;19.444;2023-04-08T08:30:20;15.00;;;10.30;;
59938;SDS011;45801;51.810;19.444;2023-04-08T08:32:49;14.10;;;9.90;;
59938;SDS011;45801;51.810;19.444;2023-04-08T08:35:17;15.90;;;10.70;;
59938;SDS011;45801;51.810;19.444;2023-04-08T08:37:43;14.40;;;9.60;;
59938;SDS011;45801;51.810;19.444;2023-04-08T08:40:10;14.80;;;10.50;;
59938;SDS011;45801;51.810;19.444;2023-04-08T08:42:37;13.70;;;10.20;;
59938;SDS011;45801;51.810;19.444;2023-04-08T08:45:04;18.30;;;11.00;;
59938;SDS011;45801;51.810;19.444;2023-04-08T08:47:32;14.40;;;10.20;;
59938;SDS011;45801;51.810;19.444;2023-04-08T08:49:58;15.60;;;10.00;;
59938;SDS011;45801;51.810;19.444;2023-04-08T08:52:26;15.70;;;10.50;;
59938;SDS011;45801;51.810;19.444;2023-04-08T08:54:58;13.40;;;9.60;;
59938;SDS011;45801;51.810;19.444;2023-04-08T08:57:26;14.90;;;10.70;;
59938;SDS011;45801;51.810;19.444;2023-04-08T08:59:53;16.80;;;10.50;;
59938;SDS011;45801;51.810;19.444;2023-04-08T09:02:24;15.60;;;10.40;;
59938;SDS011;45801;51.810;19.444;2023-04-08T09:04:55;13.40;;;9.10;;
59938;SDS011;45801;51.810;19.444;2023-04-08T09:07:23;14.90;;;9.90;;
59938;SDS011;45801;51.810;19.444;2023-04-08T09:09:55;14.80;;;10.10;;
59938;SDS011;45801;51.810;19.444;2023-04-08T09:12:23;16.80;;;10.20;;
59938;SDS011;45801;51.810;19.444;2023-04-08T09:14:50;15.30;;;10.40;;
59938;SDS011;45801;51.810;19.444;2023-04-08T09:17:36;15.00;;;10.50;;
59938;SDS011;45801;51.810;19.444;2023-04-08T09:22:52;15.10;;;10.60;;
59938;SDS011;45801;51.810;19.444;2023-04-08T09:25:28;15.30;;;10.80;;
59938;SDS011;45801;51.810;19.444;2023-04-08T09:27:57;22.20;;;10.90;;
59938;SDS011;45801;51.810;19.444;2023-04-08T09:30:25;14.40;;;9.60;;
59938;SDS011;45801;51.810;19.444;2023-04-08T09:32:55;15.40;;;11.30;;
59938;SDS011;45801;51.810;19.444;2023-04-08T09:35:23;18.20;;;10.00;;
59938;SDS011;45801;51.810;19.444;2023-04-08T09:37:50;15.20;;;10.30;;
59938;SDS011;45801;51.810;19.444;2023-04-08T09:40:17;16.60;;;10.60;;
59938;SDS011;45801;51.810;19.444;2023-04-08T09:42:45;17.40;;;10.90;;
59938;SDS011;45801;51.810;19.444;2023-04-08T09:45:17;14.40;;;9.90;;
59938;SDS011;45801;51.810;19.444;2023-04-08T09:48:00;15.10;;;10.50;;
59938;SDS011;45801;51.810;19.444;2023-04-08T09:50:35;17.00;;;10.50;;
59938;SDS011;45801;51.810;19.444;2023-04-08T09:53:09;15.20;;;10.80;;
59938;SDS011;45801;51.810;19.444;2023-04-08T09:55:40;15.30;;;11.10;;
59938;SDS011;45801;51.810;19.444;2023-04-08T09:58:18;16.20;;;11.00;;
59938;SDS011;45801;51.810;19.444;2023-04-08T10:00:52;14.70;;;10.60;;
59938;SDS011;45801;51.810;19.444;2023-04-08T10:03:24;14.90;;;10.60;;
59938;SDS011;45801;51.810;19.444;2023-04-08T10:06:02;16.40;;;10.60;;
59938;SDS011;45801;51.810;19.444;2023-04-08T10:08:29;14.90;;;10.10;;
59938;SDS011;45801;51.810;19.444;2023-04-08T10:10:56;14.50;;;9.80;;
59938;SDS011;45801;51.810;19.444;2023-04-08T10:13:23;15.50;;;10.70;;
59938;SDS011;45801;51.810;19.444;2023-04-08T10:18:45;12.40;;;8.80;;
59938;SDS011;45801;51.810;19.444;2023-04-08T10:24:09;13.90;;;9.20;;
59938;SDS011;45801;51.810;19.444;2023-04-08T10:26:37;13.20;;;9.50;;
59938;SDS011;45801;51.810;19.444;2023-04-08T10:31:44;13.10;;;9.20;;
59938;SDS011;45801;51.810;19.444;2023-04-08T10:34:18;14.60;;;9.40;;
59938;SDS011;45801;51.810;19.444;2023-04-08T10:36:46;13.30;;;9.20;;
59938;SDS011;45801;51.810;19.444;2023-04-08T10:39:13;13.30;;;9.50;;
59938;SDS011;45801;51.810;19.444;2023-04-08T10:41:41;13.10;;;9.20;;
59938;SDS011;45801;51.810;19.444;2023-04-08T10:46:45;14.00;;;9.20;;
59938;SDS011;45801;51.810;19.444;2023-04-08T10:49:13;11.80;;;7.70;;
59938;SDS011;45801;51.810;19.444;2023-04-08T10:51:40;12.00;;;8.80;;
59938;SDS011;45801;51.810;19.444;2023-04-08T10:54:08;12.20;;;8.70;;
59938;SDS011;45801;51.810;19.444;2023-04-08T10:56:45;12.80;;;8.80;;
59938;SDS011;45801;51.810;19.444;2023-04-08T10:59:14;13.60;;;9.10;;
59938;SDS011;45801;51.810;19.444;2023-04-08T11:01:52;12.50;;;9.30;;
59938;SDS011;45801;51.810;19.444;2023-04-08T11:04:20;12.30;;;9.00;;
59938;SDS011;45801;51.810;19.444;2023-04-08T11:06:48;11.70;;;8.20;;
59938;SDS011;45801;51.810;19.444;2023-04-08T11:09:15;12.10;;;8.70;;
59938;SDS011;45801;51.810;19.444;2023-04-08T11:11:43;13.00;;;8.70;;
59938;SDS011;45801;51.810;19.444;2023-04-08T11:14:11;11.70;;;8.20;;
59938;SDS011;45801;51.810;19.444;2023-04-08T11:16:38;11.40;;;7.80;;
59938;SDS011;45801;51.810;19.444;2023-04-08T11:19:06;11.90;;;7.50;;
59938;SDS011;45801;51.810;19.444;2023-04-08T11:21:36;12.70;;;8.10;;
59938;SDS011;45801;51.810;19.444;2023-04-08T11:24:08;11.20;;;8.20;;
59938;SDS011;45801;51.810;19.444;2023-04-08T11:26:39;11.80;;;8.20;;
59938;SDS011;45801;51.810;19.444;2023-04-08T11:29:08;11.70;;;8.40;;
59938;SDS011;45801;51.810;19.444;2023-04-08T11:31:39;13.10;;;9.60;;
59938;SDS011;45801;51.810;19.444;2023-04-08T11:34:07;11.50;;;8.10;;
59938;SDS011;45801;51.810;19.444;2023-04-08T11:36:34;12.10;;;8.90;;
59938;SDS011;45801;51.810;19.444;2023-04-08T11:39:08;12.40;;;8.70;;
59938;SDS011;45801;51.810;19.444;2023-04-08T11:41:39;11.70;;;8.20;;
59938;SDS011;45801;51.810;19.444;2023-04-08T11:44:05;12.10;;;8.90;;
59938;SDS011;45801;51.810;19.444;2023-04-08T11:46:33;13.50;;;8.90;;
59938;SDS011;45801;51.810;19.444;2023-04-08T11:49:01;10.90;;;7.60;;
59938;SDS011;45801;51.810;19.444;2023-04-08T11:51:29;11.40;;;7.70;;
59938;SDS011;45801;51.810;19.444;2023-04-08T11:53:57;11.40;;;7.40;;
59938;SDS011;45801;51.810;19.444;2023-04-08T11:56:23;11.50;;;7.40;;
59938;SDS011;45801;51.810;19.444;2023-04-08T11:58:50;10.30;;;7.60;;
59938;SDS011;45801;51.810;19.444;2023-04-08T12:01:18;10.40;;;7.30;;
59938;SDS011;45801;51.810;19.444;2023-04-08T12:03:54;12.20;;;8.70;;
59938;SDS011;45801;51.810;19.444;2023-04-08T12:06:22;12.00;;;8.20;;
59938;SDS011;45801;51.810;19.444;2023-04-08T12:08:49;12.70;;;8.50;;
59938;SDS011;45801;51.810;19.444;2023-04-08T12:11:15;11.80;;;8.20;;
59938;SDS011;45801;51.810;19.444;2023-04-08T12:13:42;12.80;;;8.60;;
59938;SDS011;45801;51.810;19.444;2023-04-08T12:16:08;11.80;;;7.40;;
59938;SDS011;45801;51.810;19.444;2023-04-08T12:18:35;12.40;;;8.40;;
59938;SDS011;45801;51.810;19.444;2023-04-08T12:21:02;11.70;;;7.80;;
59938;SDS011;45801;51.810;19.444;2023-04-08T12:23:29;12.50;;;8.00;;
59938;SDS011;45801;51.810;19.444;2023-04-08T12:25:55;10.60;;;7.00;;
59938;SDS011;45801;51.810;19.444;2023-04-08T12:28:21;10.80;;;7.00;;
59938;SDS011;45801;51.810;19.444;2023-04-08T12:30:49;11.50;;;7.80;;
59938;SDS011;45801;51.810;19.444;2023-04-08T12:33:15;10.30;;;6.90;;
59938;SDS011;45801;51.810;19.444;2023-04-08T12:35:42;11.00;;;7.30;;
59938;SDS011;45801;51.810;19.444;2023-04-08T12:38:09;13.70;;;8.80;;
59938;SDS011;45801;51.810;19.444;2023-04-08T12:40:36;11.50;;;7.50;;
59938;SDS011;45801;51.810;19.444;2023-04-08T12:43:02;11.00;;;7.50;;
59938;SDS011;45801;51.810;19.444;2023-04-08T12:45:29;11.70;;;7.70;;
59938;SDS011;45801;51.810;19.444;2023-04-08T12:47:55;10.70;;;7.40;;
59938;SDS011;45801;51.810;19.444;2023-04-08T12:50:21;10.80;;;7.50;;
59938;SDS011;45801;51.810;19.444;2023-04-08T12:52:48;9.50;;;6.50;;
59938;SDS011;45801;51.810;19.444;2023-04-08T12:55:15;10.50;;;7.50;;
59938;SDS011;45801;51.810;19.444;2023-04-08T12:57:41;11.20;;;7.30;;
59938;SDS011;45801;51.810;19.444;2023-04-08T13:00:08;10.50;;;6.90;;
59938;SDS011;45801;51.810;19.444;2023-04-08T13:02:37;11.10;;;7.40;;
59938;SDS011;45801;51.810;19.444;2023-04-08T13:05:04;10.50;;;7.20;;
59938;SDS011;45801;51.810;19.444;2023-04-08T13:07:30;10.60;;;7.60;;
59938;SDS011;45801;51.810;19.444;2023-04-08T13:09:57;10.20;;;7.00;;
59938;SDS011;45801;51.810;19.444;2023-04-08T13:12:23;10.60;;;7.20;;
59938;SDS011;45801;51.810;19.444;2023-04-08T13:14:50;11.20;;;6.60;;
59938;SDS011;45801;51.810;19.444;2023-04-08T13:17:16;13.60;;;9.40;;
59938;SDS011;45801;51.810;19.444;2023-04-08T13:19:43;22.70;;;14.60;;
59938;SDS011;45801;51.810;19.444;2023-04-08T13:22:09;30.30;;;18.90;;
59938;SDS011;45801;51.810;19.444;2023-04-08T13:24:36;12.40;;;8.50;;
59938;SDS011;45801;51.810;19.444;2023-04-08T13:27:02;27.20;;;17.70;;
59938;SDS011;45801;51.810;19.444;2023-04-08T13:29:28;14.10;;;10.10;;
59938;SDS011;45801;51.810;19.444;2023-04-08T13:31:55;13.20;;;9.10;;
59938;SDS011;45801;51.810;19.444;2023-04-08T13:34:22;12.20;;;8.20;;
59938;SDS011;45801;51.810;19.444;2023-04-08T13:36:48;11.50;;;8.10;;
59938;SDS011;45801;51.810;19.444;2023-04-08T13:39:14;13.00;;;8.40;;
59938;SDS011;45801;51.810;19.444;2023-04-08T13:41:41;10.90;;;8.00;;
59938;SDS011;45801;51.810;19.444;2023-04-08T13:44:07;11.00;;;7.60;;
59938;SDS011;45801;51.810;19.444;2023-04-08T13:46:34;10.10;;;7.00;;
59938;SDS011;45801;51.810;19.444;2023-04-08T13:49:00;9.70;;;6.30;;
59938;SDS011;45801;51.810;19.444;2023-04-08T13:51:28;10.80;;;6.50;;
59938;SDS011;45801;51.810;19.444;2023-04-08T13:53:54;10.10;;;6.30;;
59938;SDS011;45801;51.810;19.444;2023-04-08T13:56:21;10.30;;;6.40;;
59938;SDS011;45801;51.810;19.444;2023-04-08T13:58:47;10.80;;;6.70;;
59938;SDS011;45801;51.810;19.444;2023-04-08T14:01:15;11.10;;;6.90;;
59938;SDS011;45801;51.810;19.444;2023-04-08T14:03:41;11.10;;;7.30;;
59938;SDS011;45801;51.810;19.444;2023-04-08T14:06:08;11.20;;;7.80;;
59938;SDS011;45801;51.810;19.444;2023-04-08T14:08:35;11.90;;;8.30;;
59938;SDS011;45801;51.810;19.444;2023-04-08T14:11:02;11.20;;;7.80;;
59938;SDS011;45801;51.810;19.444;2023-04-08T14:13:28;11.80;;;8.90;;
59938;SDS011;45801;51.810;19.444;2023-04-08T14:15:55;11.70;;;8.40;;
59938;SDS011;45801;51.810;19.444;2023-04-08T14:18:23;12.00;;;8.50;;
59938;SDS011;45801;51.810;19.444;2023-04-08T14:20:51;12.30;;;9.00;;
59938;SDS011;45801;51.810;19.444;2023-04-08T14:23:17;12.70;;;7.70;;
59938;SDS011;45801;51.810;19.444;2023-04-08T14:25:43;12.20;;;8.80;;
59938;SDS011;45801;51.810;19.444;2023-04-08T14:28:10;11.50;;;7.80;;
59938;SDS011;45801;51.810;19.444;2023-04-08T14:30:39;11.50;;;8.30;;
59938;SDS011;45801;51.810;19.444;2023-04-08T14:33:06;11.90;;;7.90;;
59938;SDS011;45801;51.810;19.444;2023-04-08T14:35:33;12.10;;;8.00;;
59938;SDS011;45801;51.810;19.444;2023-04-08T14:38:00;13.70;;;8.80;;
59938;SDS011;45801;51.810;19.444;2023-04-08T14:40:26;10.90;;;7.10;;
59938;SDS011;45801;51.810;19.444;2023-04-08T14:42:52;10.40;;;6.80;;
59938;SDS011;45801;51.810;19.444;2023-04-08T14:45:19;10.60;;;6.90;;
59938;SDS011;45801;51.810;19.444;2023-04-08T14:47:45;11.70;;;7.20;;